Time;durP1;ratioP1;P1;durP2;ratioP2;P2;SDS_P1;SDS_P2;PMS_P1;PMS_P2;Temp;Humidity;BMP_temperature;BMP_pressure;BME280_temperature;BME280_humidity;BME280_pressure;Samples;Min_cycle;Max_cycle;Signal;HPM_P1;HPM_P2
2021/09/11 00:01:50;;;;;;;5.93;4.05;;;23.80;55.30;;;28.01;36.76;101085.97;5092989;28;20044;-11
2021/09/11 00:04:16;;;;;;;6.40;4.30;;;23.80;55.30;;;27.99;36.83;101087.94;5092584;28;20044;-11
2021/09/11 00:06:42;;;;;;;5.32;3.88;;;23.80;55.30;;;27.98;36.74;101080.88;5092993;28;20040;-10
2021/09/11 00:09:08;;;;;;;5.22;4.10;;;23.80;55.30;;;28.00;36.98;101082.44;5092829;28;20040;-11
2021/09/11 00:11:33;;;;;;;5.97;4.28;;;23.80;55.30;;;27.99;36.84;101080.72;5092705;28;20051;-11
2021/09/11 00:13:59;;;;;;;5.40;4.00;;;23.80;55.30;;;27.99;37.09;101078.03;5092890;28;20101;-11
2021/09/11 00:16:25;;;;;;;5.82;4.32;;;23.80;55.40;;;27.96;36.81;101074.78;5092358;28;20040;-11
2021/09/11 00:18:51;;;;;;;5.78;4.15;;;23.80;55.30;;;27.99;36.78;101077.19;5092342;28;20043;-11
2021/09/11 00:21:17;;;;;;;6.50;4.20;;;23.80;55.30;;;27.98;37.10;101081.69;5092290;28;20085;-11
2021/09/11 00:23:43;;;;;;;7.43;4.55;;;23.80;55.30;;;27.99;36.82;101086.09;5092695;28;20044;-11
2021/09/11 00:26:08;;;;;;;5.93;4.55;;;23.80;55.30;;;27.97;37.00;101079.19;5092363;28;20052;-11
2021/09/11 00:28:34;;;;;;;7.22;4.35;;;23.80;55.40;;;27.96;36.70;101077.47;5092832;28;20127;-11
2021/09/11 00:31:00;;;;;;;8.07;4.25;;;23.80;55.40;;;27.98;37.00;101086.25;5092109;28;20055;-11
2021/09/11 00:33:26;;;;;;;6.72;4.35;;;23.80;55.40;;;27.99;36.89;101079.88;5092539;28;20071;-11
2021/09/11 00:35:52;;;;;;;6.43;4.13;;;23.80;55.40;;;27.97;36.65;101090.78;5092239;28;20066;-11
2021/09/11 00:38:17;;;;;;;5.47;4.10;;;23.80;55.40;;;27.98;36.83;101086.25;5092237;28;20043;-11
2021/09/11 00:40:43;;;;;;;5.72;4.57;;;23.80;55.30;;;27.98;36.95;101083.56;5092126;28;20052;-11
2021/09/11 00:43:09;;;;;;;6.03;4.40;;;23.80;55.20;;;27.99;36.60;101087.94;5092307;28;20139;-11
2021/09/11 00:45:35;;;;;;;6.03;4.70;;;23.80;55.30;;;27.96;36.79;101080.16;5092095;28;20056;-11
2021/09/11 00:48:01;;;;;;;6.43;4.00;;;23.80;55.40;;;27.97;36.85;101080.03;5094084;28;20044;-11
2021/09/11 00:50:27;;;;;;;5.10;4.07;;;23.80;55.20;;;27.99;36.75;101082.56;5095251;28;20087;-11
2021/09/11 00:52:53;;;;;;;4.35;3.50;;;23.80;55.30;;;27.98;36.87;101078.19;5092608;28;20131;-11
2021/09/11 00:55:19;;;;;;;6.38;4.05;;;23.80;55.30;;;27.95;36.99;101082.00;5095922;28;20046;-11
2021/09/11 00:57:49;;;;;;;8.18;4.22;;;23.80;55.30;;;27.95;36.92;101078.44;5095517;28;20143;-10
2021/09/11 01:00:15;;;;;;;5.43;3.67;;;23.80;55.30;;;27.98;36.68;101072.81;5076505;28;20379;-11
2021/09/11 01:02:41;;;;;;;6.05;4.35;;;23.80;55.30;;;27.93;36.72;101057.06;5095841;28;20423;-11
2021/09/11 01:05:10;;;;;;;4.18;3.78;;;23.80;55.30;;;27.96;36.88;101061.34;5095333;28;20048;-11
2021/09/11 01:07:39;;;;;;;5.95;3.97;;;23.80;55.20;;;27.98;36.70;101067.44;5095349;28;20501;-11
2021/09/11 01:10:06;;;;;;;5.95;4.13;;;23.80;55.30;;;27.95;36.93;101065.00;5095801;28;20051;-11
2021/09/11 01:12:32;;;;;;;5.47;3.90;;;23.80;55.20;;;27.97;36.80;101071.97;5095257;28;20084;-11
2021/09/11 01:15:06;;;;;;;5.10;3.80;;;23.80;55.20;;;27.94;36.85;101069.53;5093994;28;20046;-11
2021/09/11 01:17:33;;;;;;;6.07;3.72;;;23.80;55.30;;;27.96;36.95;101070.25;5095574;28;20059;-11
2021/09/11 01:19:59;;;;;;;6.38;4.22;;;23.80;55.40;;;27.97;36.87;101077.34;5095097;28;20051;-11
2021/09/11 01:22:25;;;;;;;5.22;3.78;;;23.80;55.30;;;27.94;37.01;101074.91;5075225;28;20044;-11
2021/09/11 01:24:57;;;;;;;3.97;3.30;;;23.80;55.30;;;27.93;36.53;101069.69;5095709;28;20044;-11
2021/09/11 01:27:23;;;;;;;4.00;3.35;;;23.80;55.30;;;27.98;36.95;101080.88;5095694;28;20055;-11
2021/09/11 01:29:59;;;;;;;6.30;4.15;;;23.80;55.30;;;27.93;36.76;101083.94;5095182;28;20524;-11
2021/09/11 01:32:28;;;;;;;4.22;3.33;;;23.80;55.20;;;27.95;36.69;101090.06;5094781;28;20048;-11
2021/09/11 01:34:54;;;;;;;7.68;4.53;;;23.80;55.20;;;27.95;37.01;101087.38;5095459;28;20062;-11
2021/09/11 01:37:20;;;;;;;4.55;3.65;;;23.80;55.20;;;27.95;36.69;101087.38;5094953;28;20379;-11
2021/09/11 01:39:48;;;;;;;8.20;3.55;;;23.80;55.20;;;27.95;36.76;101086.50;5094884;28;20059;-11
2021/09/11 01:42:22;;;;;;;5.07;3.83;;;23.80;55.20;;;27.94;36.88;101087.50;5094891;28;20098;-11
2021/09/11 01:44:50;;;;;;;4.55;3.70;;;23.80;55.20;;;27.96;36.90;101096.28;5094711;28;20043;-11
2021/09/11 01:47:16;;;;;;;5.13;3.92;;;23.80;55.30;;;27.95;36.97;101089.19;5095376;28;20383;-11
2021/09/11 01:49:43;;;;;;;4.18;3.53;;;23.80;55.20;;;27.96;36.75;101101.66;5094731;28;20070;-11
2021/09/11 01:52:10;;;;;;;6.10;3.97;;;23.80;55.20;;;27.94;36.77;101106.31;5095160;28;20055;-11
2021/09/11 01:54:38;;;;;;;6.45;4.10;;;23.80;55.20;;;27.95;36.83;101108.00;5094553;28;20132;-11
2021/09/11 01:57:06;;;;;;;6.05;3.80;;;23.80;55.20;;;27.96;36.72;101101.66;5094877;28;20402;-11
2021/09/11 01:59:32;;;;;;;5.80;3.60;;;23.80;55.20;;;27.94;36.79;101107.16;5093338;28;20537;-11
2021/09/11 02:01:58;;;;;;;5.15;3.20;;;23.80;55.20;;;27.97;36.85;101109.59;5094492;28;20040;-11
2021/09/11 02:04:24;;;;;;;3.92;3.28;;;23.80;55.20;;;27.96;36.67;101109.72;5094512;28;20047;-11
2021/09/11 02:06:50;;;;;;;4.90;3.30;;;23.80;55.20;;;27.94;36.67;101100.94;5094485;28;20047;-11
2021/09/11 02:09:16;;;;;;;6.03;4.18;;;23.80;55.30;;;27.93;36.88;101099.25;5094789;28;20044;-11
2021/09/11 02:11:42;;;;;;;5.00;3.50;;;23.70;55.10;;;27.93;36.86;101107.28;5094285;28;20092;-11
2021/09/11 02:14:08;;;;;;;4.47;3.67;;;23.80;55.20;;;27.95;36.74;101098.13;5094652;28;20452;-10
2021/09/11 02:16:33;;;;;;;6.43;3.85;;;23.80;55.20;;;27.91;36.62;101100.19;5094387;28;20486;-11
2021/09/11 02:19:00;;;;;;;6.55;3.65;;;23.70;55.20;;;27.93;36.81;101096.56;5094157;28;20386;-11
2021/09/11 02:21:25;;;;;;;4.65;3.15;;;23.80;55.20;;;27.93;36.71;101101.91;5094160;28;20506;-11
2021/09/11 02:23:51;;;;;;;4.78;3.65;;;23.70;55.20;;;27.90;36.84;101093.13;5094145;28;20055;-11
2021/09/11 02:26:17;;;;;;;4.70;3.30;;;23.70;55.20;;;27.94;36.97;101104.47;5094457;28;20406;-11
2021/09/11 02:28:43;;;;;;;4.30;3.40;;;23.80;55.30;;;27.93;36.80;101096.56;5093896;28;20551;-10
2021/09/11 02:31:10;;;;;;;5.20;3.83;;;23.80;55.20;;;27.94;36.66;101109.00;5076144;28;20040;-11
2021/09/11 02:33:41;;;;;;;3.75;3.25;;;23.80;55.20;;;27.93;36.87;101107.28;5094007;28;20139;-11
2021/09/11 02:36:07;;;;;;;4.63;3.53;;;23.80;55.20;;;27.92;36.53;101103.75;5094361;28;20048;-11
2021/09/11 02:38:33;;;;;;;4.28;3.10;;;23.70;55.10;;;27.91;36.63;101116.31;5094030;28;20138;-11
2021/09/11 02:40:59;;;;;;;4.80;3.60;;;23.70;55.20;;;27.91;36.99;101110.94;5093791;28;20473;-11
2021/09/11 02:43:25;;;;;;;4.05;3.25;;;23.70;55.20;;;27.91;36.96;101113.63;5093699;28;20113;-11
2021/09/11 02:45:51;;;;;;;4.25;3.60;;;23.70;55.10;;;27.91;36.69;101119.00;5093937;28;20496;-11
2021/09/11 02:48:17;;;;;;;5.32;3.88;;;23.70;55.20;;;27.91;36.70;101115.47;5094326;28;20430;-11
2021/09/11 02:50:43;;;;;;;4.18;3.17;;;23.80;55.20;;;27.93;36.93;101112.69;5093593;28;20044;-11
2021/09/11 02:53:09;;;;;;;4.22;3.50;;;23.70;55.20;;;27.91;36.98;101113.63;5093653;28;20052;-11
2021/09/11 02:55:36;;;;;;;4.18;3.13;;;23.80;55.20;;;27.90;36.69;101109.25;5093750;28;20048;-11
2021/09/11 02:58:02;;;;;;;6.25;4.05;;;23.70;55.20;;;27.92;36.74;101111.81;5093630;28;20409;-11
2021/09/11 03:00:27;;;;;;;5.15;3.70;;;23.80;55.20;;;27.92;36.80;101122.56;5093464;28;20055;-11
2021/09/11 03:02:53;;;;;;;4.07;3.22;;;23.80;55.30;;;27.90;36.66;101113.78;5093355;28;20051;-11
2021/09/11 03:05:19;;;;;;;4.88;3.53;;;23.70;55.20;;;27.91;36.53;101123.53;5092179;28;20048;-11
2021/09/11 03:07:45;;;;;;;4.43;3.47;;;23.80;55.30;;;27.93;36.96;101124.25;5093794;28;20512;-11
2021/09/11 03:10:11;;;;;;;4.00;2.90;;;23.70;55.20;;;27.90;36.73;101122.69;5093139;28;20481;-11
2021/09/11 03:12:36;;;;;;;4.60;3.22;;;23.80;55.20;;;27.92;36.55;101127.94;5093127;28;20052;-11
2021/09/11 03:15:03;;;;;;;4.20;3.05;;;23.70;55.20;;;27.92;36.89;101125.25;5093361;28;20047;-11
2021/09/11 03:17:29;;;;;;;4.50;3.20;;;23.70;55.10;;;27.92;36.73;101122.56;5093386;28;20481;-11
2021/09/11 03:19:55;;;;;;;6.38;3.80;;;23.70;55.20;;;27.91;36.57;101115.47;5093248;28;20075;-11
2021/09/11 03:22:21;;;;;;;4.18;3.47;;;23.70;55.20;;;27.93;36.54;101124.25;5093189;28;20051;-11
2021/09/11 03:24:47;;;;;;;4.03;3.40;;;23.70;55.20;;;27.93;36.90;101123.41;5093710;28;20539;-11
2021/09/11 03:27:12;;;;;;;3.83;2.80;;;23.70;55.20;;;27.90;36.55;101121.84;5092006;28;20075;-11
2021/09/11 03:29:38;;;;;;;4.22;3.05;;;23.70;55.10;;;27.91;36.60;101119.00;5093084;28;20401;-11
2021/09/11 03:32:05;;;;;;;3.53;3.20;;;23.70;55.20;;;27.92;36.88;101122.56;5092985;28;20050;-11
2021/09/11 03:34:31;;;;;;;4.22;3.13;;;23.70;55.20;;;27.92;36.53;101125.25;5093006;28;20048;-11
2021/09/11 03:36:56;;;;;;;4.65;3.38;;;23.70;55.20;;;27.91;36.82;101123.53;5093396;28;20060;-11
2021/09/11 03:39:22;;;;;;;3.97;2.95;;;23.70;55.20;;;27.90;36.90;101119.16;5092897;28;20044;-11
2021/09/11 03:41:48;;;;;;;4.13;2.95;;;23.70;55.20;;;27.89;36.54;101120.13;5093292;28;20044;-11
2021/09/11 03:44:14;;;;;;;3.45;3.08;;;23.70;55.20;;;27.91;36.78;101119.00;5092941;28;20116;-11
2021/09/11 03:46:40;;;;;;;3.42;2.85;;;23.70;55.20;;;27.91;36.72;101118.16;5092832;28;20485;-11
2021/09/11 03:49:06;;;;;;;4.90;3.17;;;23.70;55.20;;;27.93;36.71;101118.06;5074717;28;20044;-11
2021/09/11 03:51:34;;;;;;;4.30;3.38;;;23.70;55.20;;;27.91;36.71;101115.47;5092827;28;20055;-11
2021/09/11 03:54:00;;;;;;;3.97;3.25;;;23.70;55.20;;;27.91;36.75;101118.16;5092768;28;20048;-10
2021/09/11 03:56:26;;;;;;;3.45;2.97;;;23.70;55.20;;;27.89;36.53;101115.59;5092812;28;20040;-11
2021/09/11 03:58:52;;;;;;;3.30;3.00;;;23.70;55.10;;;27.91;36.59;101116.31;5092651;28;20048;-11
2021/09/11 04:01:17;;;;;;;3.28;2.72;;;23.70;55.20;;;27.90;36.53;101120.00;5092818;28;20052;-11
2021/09/11 04:03:43;;;;;;;3.28;2.90;;;23.70;55.20;;;27.92;36.83;101127.94;5092993;28;20051;-11
2021/09/11 04:06:10;;;;;;;3.67;3.00;;;23.70;55.20;;;27.92;36.63;101125.25;5092692;28;20063;-10
2021/09/11 04:08:36;;;;;;;5.10;3.28;;;23.70;55.20;;;27.88;36.89;101132.72;5092642;28;20056;-11
2021/09/11 04:11:01;;;;;;;3.72;2.72;;;23.70;55.20;;;27.88;36.94;101124.66;5092501;28;20097;-11
2021/09/11 04:13:28;;;;;;;3.53;3.13;;;23.70;55.20;;;27.88;36.57;101121.09;5092623;28;20052;-11
2021/09/11 04:15:53;;;;;;;4.95;3.40;;;23.70;55.20;;;27.90;36.78;101128.06;5092560;28;20402;-11
2021/09/11 04:18:20;;;;;;;6.10;3.45;;;23.70;55.30;;;27.90;36.66;101132.59;5092464;28;20048;-11
2021/09/11 04:20:46;;;;;;;4.40;3.28;;;23.70;55.30;;;27.89;36.70;101126.34;5092316;28;20051;-11
2021/09/11 04:23:12;;;;;;;3.20;2.65;;;23.70;55.20;;;27.90;36.59;101138.81;5094715;28;20124;-11
2021/09/11 04:25:37;;;;;;;3.30;2.67;;;23.70;55.20;;;27.87;36.95;101125.63;5096139;28;20079;-11
2021/09/11 04:28:03;;;;;;;4.47;3.53;;;23.70;55.30;;;27.89;36.95;101128.19;5095926;28;20075;-11
2021/09/11 04:30:29;;;;;;;4.85;3.38;;;23.70;55.30;;;27.88;36.63;101127.34;5095792;28;20604;-11
2021/09/11 04:32:55;;;;;;;4.32;2.67;;;23.70;55.20;;;27.88;36.92;101124.66;5095785;28;20482;-11
2021/09/11 04:35:21;;;;;;;4.15;2.95;;;23.70;55.20;;;27.88;36.63;101130.03;5096005;28;20047;-11
2021/09/11 04:37:47;;;;;;;4.13;3.40;;;23.70;55.30;;;27.87;36.51;101130.16;5095903;28;20557;-10
2021/09/11 04:40:13;;;;;;;5.07;3.22;;;23.70;55.20;;;27.86;36.73;101134.66;5095686;28;20052;-11
2021/09/11 04:42:39;;;;;;;4.90;3.55;;;23.70;55.20;;;27.87;36.58;101131.00;5095879;28;20044;-11
2021/09/11 04:45:05;;;;;;;3.60;2.70;;;23.70;55.20;;;27.88;36.91;101135.41;5096075;28;20101;-11
2021/09/11 04:47:31;;;;;;;3.53;3.20;;;23.70;55.20;;;27.89;36.94;101138.94;5095731;28;20052;-11
2021/09/11 04:49:57;;;;;;;3.33;3.03;;;23.70;55.20;;;27.87;36.70;101131.00;5095523;28;20135;-11
2021/09/11 04:52:22;;;;;;;3.22;2.92;;;23.70;55.30;;;27.89;36.47;101128.19;5096027;28;20044;-11
2021/09/11 04:54:48;;;;;;;4.63;3.30;;;23.70;55.20;;;27.87;36.51;101125.63;5095573;28;20409;-11
2021/09/11 04:57:14;;;;;;;3.92;2.72;;;23.70;55.30;;;27.87;36.66;101124.78;5095990;28;20535;-11
2021/09/11 04:59:40;;;;;;;4.30;3.15;;;23.70;55.30;;;27.88;36.58;101137.22;5095750;28;20055;-11
2021/09/11 05:02:06;;;;;;;4.10;2.90;;;23.70;55.20;;;27.87;36.91;101136.38;5095535;28;20043;-11
2021/09/11 05:04:32;;;;;;;3.03;2.65;;;23.70;55.20;;;27.88;36.96;101134.53;5095778;28;20048;-11
2021/09/11 05:07:01;;;;;;;4.95;3.08;;;23.70;55.30;;;27.87;36.86;101143.59;5095523;28;20569;-11
2021/09/11 05:09:27;;;;;;;5.15;3.30;;;23.70;55.40;;;27.86;36.57;101131.97;5095262;28;20052;-10
2021/09/11 05:11:52;;;;;;;3.20;2.47;;;23.70;55.20;;;27.85;36.86;101132.97;5095340;28;20482;-11
2021/09/11 05:14:18;;;;;;;2.97;2.38;;;23.70;55.30;;;27.86;36.55;101133.81;5095229;28;20071;-10
2021/09/11 05:16:44;;;;;;;3.70;2.83;;;23.70;55.40;;;27.86;36.73;101125.75;5095337;28;20052;-11
2021/09/11 05:19:10;;;;;;;4.05;2.90;;;23.70;55.30;;;27.87;36.86;101127.47;5075042;28;20105;-11
2021/09/11 05:21:36;;;;;;;4.72;3.10;;;23.70;55.40;;;27.87;36.97;101128.31;5095079;28;20062;-11
2021/09/11 05:24:02;;;;;;;3.15;2.85;;;23.70;55.40;;;27.84;36.78;101130.44;5095198;28;20135;-11
2021/09/11 05:26:28;;;;;;;2.85;2.55;;;23.70;55.30;;;27.87;36.62;101127.47;5095181;28;20044;-11
2021/09/11 05:28:54;;;;;;;4.00;3.05;;;23.70;55.30;;;27.86;36.57;101129.28;5095230;28;20044;-11
2021/09/11 05:31:20;;;;;;;4.57;3.13;;;23.70;55.30;;;27.88;36.75;101131.84;5094877;28;20164;-11
2021/09/11 05:33:46;;;;;;;2.97;2.55;;;23.70;55.20;;;27.87;36.78;101135.53;5095126;28;20055;-11
2021/09/11 05:36:11;;;;;;;3.95;2.83;;;23.70;55.10;;;27.87;36.63;101135.53;5094915;28;20074;-11
2021/09/11 05:38:37;;;;;;;4.43;2.97;;;23.70;55.20;;;27.88;36.69;101146.16;5076061;28;20101;-11
2021/09/11 05:41:03;;;;;;;3.28;2.85;;;23.70;55.30;;;27.89;36.79;101150.53;5094872;28;20056;-11
2021/09/11 05:43:28;;;;;;;3.25;2.80;;;23.70;55.20;;;27.88;36.55;101148.84;5076793;28;20410;-11
2021/09/11 05:45:55;;;;;;;3.63;2.60;;;23.70;55.20;;;27.86;36.82;101144.56;5095033;28;20092;-11
2021/09/11 05:48:22;;;;;;;2.97;2.67;;;23.70;55.10;;;27.87;36.62;101144.44;5094634;28;20557;-11
2021/09/11 05:50:48;;;;;;;3.17;2.80;;;23.70;55.20;;;27.88;36.84;101148.84;5094743;28;20494;-11
2021/09/11 05:53:14;;;;;;;3.30;2.78;;;23.70;55.20;;;27.87;36.72;101141.75;5094621;28;20130;-11
2021/09/11 05:55:40;;;;;;;5.53;3.15;;;23.70;55.30;;;27.85;36.69;101146.41;5094546;28;20044;-11
2021/09/11 05:58:05;;;;;;;3.55;3.10;;;23.70;55.30;;;27.85;36.96;101150.91;5094486;28;20406;-11
2021/09/11 06:00:31;;;;;;;2.88;2.63;;;23.70;55.30;;;27.88;36.70;101147.97;5094398;28;20134;-11
2021/09/11 06:02:57;;;;;;;3.03;2.72;;;23.70;55.30;;;27.88;36.65;101154.22;5094428;28;20051;-11
2021/09/11 06:05:22;;;;;;;3.10;2.70;;;23.70;55.20;;;27.89;36.75;101161.28;5094316;28;20052;-11
2021/09/11 06:07:48;;;;;;;2.70;2.50;;;23.70;55.10;;;27.87;36.87;101157.88;5094376;28;20056;-11
2021/09/11 06:10:14;;;;;;;4.72;2.78;;;23.70;55.20;;;27.88;36.91;101162.28;5094365;28;20466;-11
2021/09/11 06:12:40;;;;;;;2.85;2.42;;;23.70;55.20;;;27.88;36.63;101162.28;5094853;28;20497;-11
2021/09/11 06:15:07;;;;;;;3.15;2.40;;;23.70;55.20;;;27.87;36.80;101168.63;5094663;28;20501;-11
2021/09/11 06:17:33;;;;;;;3.17;2.85;;;23.70;55.10;;;27.87;36.81;101160.56;5094127;28;20044;-11
2021/09/11 06:20:00;;;;;;;3.80;2.85;;;23.70;55.20;;;27.89;36.74;101163.97;5094030;28;20036;-11
2021/09/11 06:22:25;;;;;;;3.97;3.13;;;23.70;55.10;;;27.90;36.69;101165.69;5094559;28;20044;-11
2021/09/11 06:24:52;;;;;;;2.55;2.35;;;23.70;55.10;;;27.89;36.49;101163.97;5094465;28;20397;-11
2021/09/11 06:27:18;;;;;;;4.25;2.92;;;23.70;55.20;;;27.90;36.82;101167.53;5094211;28;20052;-11
2021/09/11 06:29:44;;;;;;;4.35;3.20;;;23.70;55.20;;;27.89;36.75;101172.03;5093964;28;20040;-11
2021/09/11 06:32:10;;;;;;;3.17;2.55;;;23.70;55.10;;;27.89;36.64;101172.03;5094096;28;20043;-11
2021/09/11 06:34:36;;;;;;;4.97;2.90;;;23.70;55.70;;;27.90;36.85;101165.69;5094317;28;20044;-11
2021/09/11 06:37:02;;;;;;;4.65;3.08;;;23.70;55.10;;;27.89;36.72;101172.03;5093994;28;20069;-10
2021/09/11 06:39:28;;;;;;;3.88;2.88;;;23.70;55.00;;;27.91;36.46;101161.16;5093993;28;20040;-11
2021/09/11 06:41:54;;;;;;;4.22;2.72;;;23.70;55.00;;;27.92;36.69;101165.53;5094229;28;20051;-11
2021/09/11 06:44:19;;;;;;;4.03;2.85;;;23.80;55.00;;;27.93;36.49;101166.41;5093489;28;20056;-11
2021/09/11 06:46:45;;;;;;;3.45;2.85;;;23.80;55.00;;;27.91;36.55;101167.38;5093507;28;20040;-11
2021/09/11 06:49:11;;;;;;;2.80;2.55;;;23.80;54.90;;;27.95;36.86;101170.69;5093975;28;20044;-11
2021/09/11 06:51:37;;;;;;;2.63;2.38;;;23.80;54.80;;;27.93;36.70;101161.06;5093591;28;20101;-11
2021/09/11 06:54:02;;;;;;;2.50;2.30;;;23.80;54.90;;;27.95;36.57;101153.69;5093753;28;20044;-11
2021/09/11 06:56:28;;;;;;;4.10;2.88;;;23.80;54.80;;;27.99;36.73;101168.59;5094007;28;20131;-11
2021/09/11 06:58:54;;;;;;;2.88;2.50;;;23.80;54.70;;;27.99;36.74;101172.13;5093828;28;20040;-11
2021/09/11 07:01:22;;;;;;;3.47;2.50;;;23.80;54.70;;;27.98;36.45;101167.72;5093606;28;20063;-10
2021/09/11 07:03:47;;;;;;;3.03;2.40;;;23.80;54.70;;;28.02;36.45;101174.53;5093613;28;20051;-11
2021/09/11 07:06:13;;;;;;;3.20;2.90;;;23.90;54.70;;;28.00;36.62;101173.81;5094066;28;20093;-11
2021/09/11 07:08:39;;;;;;;3.10;2.80;;;23.90;54.60;;;28.02;36.66;101177.22;5093375;28;20135;-11
2021/09/11 07:11:09;;;;;;;3.63;2.75;;;23.90;54.60;;;28.04;36.55;101175.25;5092526;28;20054;-11
2021/09/11 07:13:35;;;;;;;2.65;2.45;;;23.90;54.60;;;28.06;36.34;101181.34;5093820;28;20054;-11
2021/09/11 07:16:01;;;;;;;3.38;2.72;;;23.90;54.50;;;28.05;36.43;101173.41;5093522;28;20410;-11
2021/09/11 07:18:27;;;;;;;3.42;2.33;;;23.90;54.50;;;28.06;36.53;101181.34;5093242;28;20040;-11
2021/09/11 07:20:53;;;;;;;3.03;2.58;;;24.00;54.40;;;28.08;36.40;101184.75;5093860;28;20056;-11
2021/09/11 07:23:19;;;;;;;2.88;2.50;;;24.00;54.40;;;28.10;36.45;101181.94;5093206;28;20051;-11
2021/09/11 07:25:45;;;;;;;3.08;2.75;;;24.00;54.30;;;28.11;36.32;101185.47;5092906;28;20040;-11
2021/09/11 07:28:11;;;;;;;2.50;2.15;;;24.00;54.30;;;28.15;36.47;101186.88;5093123;28;20044;-11
2021/09/11 07:30:37;;;;;;;3.03;2.72;;;24.00;54.20;;;28.15;36.55;101181.50;5093336;28;20044;-11
2021/09/11 07:33:03;;;;;;;3.15;2.50;;;24.10;54.30;;;28.15;36.42;101186.88;5093372;28;20052;-11
2021/09/11 07:35:29;;;;;;;2.92;2.35;;;24.10;54.20;;;28.17;36.53;101191.16;5091423;28;20052;-11
2021/09/11 07:37:55;;;;;;;3.60;2.72;;;24.10;54.20;;;28.17;36.49;101193.00;5092946;28;20044;-11
2021/09/11 07:40:21;;;;;;;3.45;2.47;;;24.10;54.20;;;28.16;36.17;101193.97;5092873;28;20516;-11
2021/09/11 07:42:46;;;;;;;2.92;2.72;;;24.00;54.20;;;28.17;36.17;101188.47;5093170;28;20043;-11
2021/09/11 07:45:15;;;;;;;3.85;2.38;;;24.00;54.20;;;28.16;36.38;101189.44;5093262;28;20101;-11
2021/09/11 07:47:41;;;;;;;2.72;2.53;;;24.00;54.10;;;28.15;36.40;101185.06;5092864;28;20554;-11
2021/09/11 07:50:08;;;;;;;3.70;2.63;;;24.00;54.20;;;28.16;36.11;101181.38;5092575;28;20101;-11
2021/09/11 07:52:33;;;;;;;2.58;1.95;;;24.00;54.20;;;28.17;36.40;101199.22;5093000;28;20051;-11
2021/09/11 07:55:00;;;;;;;3.72;2.60;;;24.00;54.10;;;28.16;36.03;101186.75;5092835;28;20040;-11
2021/09/11 07:57:25;;;;;;;2.83;2.47;;;24.00;54.20;;;28.16;36.15;101189.44;5091636;28;20130;-11
2021/09/11 07:59:51;;;;;;;3.13;2.67;;;24.00;54.20;;;28.18;36.13;101195.53;5092836;28;20133;-11
2021/09/11 08:02:17;;;;;;;3.60;2.15;;;24.00;54.10;;;28.16;36.14;101197.50;5093013;28;20440;-11
2021/09/11 08:04:43;;;;;;;2.90;2.60;;;24.00;54.10;;;28.18;36.05;101203.59;5092695;28;20410;-11
2021/09/11 08:07:09;;;;;;;2.50;2.30;;;24.00;54.20;;;28.17;36.20;101203.75;5092743;28;20052;-11
2021/09/11 08:09:35;;;;;;;4.13;2.65;;;24.00;54.20;;;28.16;35.94;101202.06;5092541;28;20043;-11
2021/09/11 08:12:00;;;;;;;3.35;2.72;;;24.00;54.20;;;28.16;36.05;101204.75;5092496;28;20052;-11
2021/09/11 08:14:26;;;;;;;2.47;2.10;;;24.00;54.20;;;28.18;36.15;101208.97;5092537;28;20055;-11
2021/09/11 08:16:52;;;;;;;2.60;2.40;;;24.00;54.10;;;28.16;36.24;101205.59;5092708;28;20040;-11
2021/09/11 08:19:18;;;;;;;4.15;2.53;;;24.00;54.20;;;28.17;36.21;101206.44;5092357;28;20052;-11
2021/09/11 08:21:43;;;;;;;2.97;2.60;;;24.00;54.80;;;28.13;36.15;101199.63;5092945;28;20150;-11
2021/09/11 08:24:09;;;;;;;2.50;2.25;;;24.00;54.20;;;28.15;36.26;101208.41;5092515;28;20546;-11
2021/09/11 08:26:35;;;;;;;2.53;2.33;;;24.00;54.20;;;28.15;36.08;101209.28;5092423;28;20048;-11
2021/09/11 08:29:01;;;;;;;2.50;2.30;;;24.00;54.20;;;28.14;35.93;101206.72;5090908;28;20047;-11
2021/09/11 08:31:27;;;;;;;3.42;2.90;;;24.00;54.20;;;28.14;36.27;101204.88;5092251;28;20087;-11
2021/09/11 08:33:53;;;;;;;3.50;2.63;;;24.00;54.20;;;28.17;36.25;101214.53;5092369;28;20126;-11
2021/09/11 08:36:19;;;;;;;3.80;2.42;;;24.00;54.20;;;28.16;36.18;101213.66;5092903;28;20051;-11
2021/09/11 08:38:44;;;;;;;3.05;2.72;;;24.00;54.20;;;28.16;36.05;101212.81;5092320;28;20071;-11
2021/09/11 08:41:11;;;;;;;3.38;2.90;;;24.00;54.20;;;28.15;36.10;101219.16;5092209;28;20055;-11
2021/09/11 08:43:37;;;;;;;4.15;2.80;;;24.00;54.10;;;28.17;36.12;101223.44;5092229;28;20059;-11
2021/09/11 08:46:03;;;;;;;2.88;2.58;;;24.00;54.20;;;28.14;36.13;101221.00;5092193;28;20051;-11
2021/09/11 08:48:29;;;;;;;2.92;2.58;;;24.00;54.20;;;28.15;35.95;101219.16;5089172;28;20056;-11
2021/09/11 08:50:56;;;;;;;2.63;2.40;;;24.00;54.70;;;28.17;36.32;101228.81;5092324;28;20080;-11
2021/09/11 08:53:23;;;;;;;2.70;2.45;;;24.00;54.20;;;28.15;36.03;101233.47;5092151;28;20056;-11
2021/09/11 08:55:49;;;;;;;2.80;2.47;;;24.00;54.20;;;28.15;35.96;101238.84;5092114;28;20036;-10
2021/09/11 08:58:20;;;;;;;2.75;2.50;;;24.00;54.20;;;28.14;36.07;101238.97;5091942;28;20511;-11
2021/09/11 09:00:47;;;;;;;3.03;2.53;;;24.00;54.20;;;28.15;36.23;101240.66;5091707;28;20048;-11
2021/09/11 09:03:36;;;;;;;3.92;2.67;;;24.00;54.20;;;28.16;35.93;101247.75;5088699;28;20056;-11
2021/09/11 09:06:25;;;;;;;3.60;2.60;;;24.00;54.20;;;28.15;36.04;101246.91;5092002;28;20484;-11
2021/09/11 09:09:03;;;;;;;2.72;2.45;;;24.00;54.30;;;28.13;36.26;101243.47;5091588;28;20409;-11
2021/09/11 09:11:32;;;;;;;2.60;2.40;;;24.00;54.30;;;28.13;35.92;101237.25;5095997;28;20051;-11
2021/09/11 09:14:06;;;;;;;2.92;2.50;;;23.90;54.20;;;28.12;36.16;101244.47;5095290;28;20132;-11
2021/09/11 09:16:47;;;;;;;2.67;2.45;;;23.90;54.20;;;28.14;36.19;101247.88;5095128;28;20044;-11
2021/09/11 09:19:23;;;;;;;3.50;2.50;;;24.00;54.30;;;28.14;36.19;101252.41;5076727;28;20056;-11
2021/09/11 09:21:54;;;;;;;3.17;2.30;;;24.00;54.30;;;28.14;36.18;101253.25;5095272;28;20428;-11
2021/09/11 09:24:27;;;;;;;;;;;24.00;54.20;;;28.31;35.95;101249.09;5095674;28;20051;-11
2021/09/11 09:27:01;;;;;;;2.53;2.33;;;24.00;54.20;;;28.20;35.85;101249.19;5095055;28;19916;-11
2021/09/11 09:29:27;;;;;;;2.90;2.60;;;24.00;54.10;;;28.19;35.79;101248.34;5095085;28;20048;-11
2021/09/11 09:31:56;;;;;;;2.70;2.40;;;24.00;54.10;;;28.18;36.17;101248.47;5094873;28;20044;-11
2021/09/11 09:34:37;;;;;;;2.75;2.53;;;24.00;54.10;;;28.15;36.14;101244.22;5095053;28;20044;-11
2021/09/11 09:37:09;;;;;;;3.10;2.50;;;24.00;54.10;;;28.17;36.34;101247.63;5095634;28;20390;-11
2021/09/11 09:39:49;;;;;;;2.88;2.28;;;24.00;54.10;;;28.16;36.23;101242.38;5095052;28;20044;-11
2021/09/11 09:42:18;;;;;;;2.50;2.30;;;24.00;54.10;;;28.18;36.10;101243.09;5095277;28;20056;-11
2021/09/11 09:44:51;;;;;;;2.75;2.30;;;24.00;54.10;;;28.18;36.09;101243.09;5095409;28;20112;-11
2021/09/11 09:47:23;;;;;;;2.88;2.55;;;24.10;54.10;;;28.18;35.97;101232.34;5076534;28;20056;-11
2021/09/11 09:50:14;;;;;;;2.90;2.60;;;24.10;54.10;;;28.19;36.18;101234.03;5094776;28;20096;-11
2021/09/11 09:52:40;;;;;;;3.75;2.75;;;24.10;54.00;;;28.21;36.19;101232.06;5092226;28;20083;-11
2021/09/11 09:55:08;;;;;;;3.20;2.38;;;24.10;54.00;;;28.22;36.07;101236.47;5094796;28;20051;-11
2021/09/11 09:57:37;;;;;;;3.22;2.40;;;24.20;53.90;;;28.24;36.05;101243.41;5094543;28;20040;-11
2021/09/11 10:00:05;;;;;;;2.50;2.30;;;24.20;53.80;;;28.28;35.92;101244.84;5094452;28;20036;-11
2021/09/11 10:02:31;;;;;;;2.80;2.58;;;24.20;53.70;;;28.28;35.94;101239.47;5094681;28;20047;-11
2021/09/11 10:04:58;;;;;;;3.17;2.42;;;24.20;53.70;;;28.26;35.94;101232.50;5075283;28;20041;-11
2021/09/11 10:07:25;;;;;;;2.65;2.45;;;24.20;53.70;;;28.30;36.09;101241.16;5094852;28;20466;-11
2021/09/11 10:09:53;;;;;;;3.13;2.40;;;24.20;53.80;;;28.27;36.04;101232.38;5076924;28;20056;-11
2021/09/11 10:12:37;;;;;;;3.03;2.47;;;24.20;53.80;;;28.30;35.80;101235.78;5093044;28;20040;-10